createdAt,value
2022-10-23T00:00:36.883Z,0.00
2022-10-23T00:01:36.800Z,0.00
2022-10-23T00:02:36.914Z,0.00
2022-10-23T00:03:36.775Z,0.00
2022-10-23T00:04:36.769Z,0.00
2022-10-23T00:05:36.758Z,0.00
2022-10-23T00:06:36.749Z,0.00
2022-10-23T00:07:36.731Z,0.00
2022-10-23T00:08:36.724Z,0.00
2022-10-23T00:09:36.706Z,0.00
2022-10-23T00:10:36.726Z,0.00
2022-10-23T00:11:36.687Z,0.00
2022-10-23T00:12:36.680Z,0.00
2022-10-23T00:13:36.666Z,0.00
2022-10-23T00:14:36.659Z,0.00
2022-10-23T00:15:36.638Z,0.00
2022-10-23T00:16:36.633Z,0.00
2022-10-23T00:17:36.622Z,0.00
2022-10-23T00:18:36.607Z,0.00
2022-10-23T00:19:36.598Z,0.00
2022-10-23T00:20:36.586Z,0.00
2022-10-23T00:21:36.571Z,0.00
2022-10-23T00:22:36.572Z,0.00
2022-10-23T00:23:36.557Z,0.00
2022-10-23T00:24:36.543Z,0.00
2022-10-23T00:25:36.539Z,0.00
2022-10-23T00:26:36.544Z,0.00
2022-10-23T00:27:36.509Z,0.00
2022-10-23T00:28:36.494Z,0.00
2022-10-23T00:29:36.482Z,0.00
2022-10-23T00:30:36.472Z,0.00
2022-10-23T00:31:36.464Z,0.00
2022-10-23T00:32:36.460Z,0.00
2022-10-23T00:33:36.445Z,0.00
2022-10-23T00:34:36.424Z,0.00
2022-10-23T00:35:36.414Z,0.00
2022-10-23T00:36:36.407Z,0.00
2022-10-23T00:37:36.390Z,0.00
2022-10-23T00:38:36.383Z,0.00
2022-10-23T00:39:36.372Z,0.00
2022-10-23T00:40:36.436Z,0.00
2022-10-23T00:41:36.345Z,0.00
2022-10-23T00:42:36.359Z,0.00
2022-10-23T00:43:36.324Z,0.00
2022-10-23T00:44:36.313Z,0.00
2022-10-23T00:45:36.303Z,0.00
2022-10-23T00:46:36.292Z,0.00
2022-10-23T00:47:36.303Z,0.00
2022-10-23T00:48:36.268Z,0.00
2022-10-23T00:49:38.361Z,0.00
2022-10-23T00:50:36.308Z,0.00
2022-10-23T00:51:36.232Z,0.00
2022-10-23T00:52:36.224Z,0.00
2022-10-23T00:53:36.213Z,0.00
2022-10-23T00:54:36.201Z,0.00
2022-10-23T00:55:36.198Z,0.00
2022-10-23T00:56:36.181Z,0.00
2022-10-23T00:57:36.180Z,0.00
2022-10-23T00:58:36.186Z,0.00
2022-10-23T00:59:36.144Z,0.00
2022-10-23T01:00:36.134Z,0.00
2022-10-23T01:01:36.321Z,0.00
2022-10-23T01:02:36.214Z,0.00
2022-10-23T01:03:36.098Z,0.00
2022-10-23T01:04:36.090Z,0.00
2022-10-23T01:05:36.212Z,0.00
2022-10-23T01:06:36.080Z,0.00
2022-10-23T01:07:36.055Z,0.00
2022-10-23T01:08:36.050Z,0.00
2022-10-23T01:09:36.035Z,0.00
2022-10-23T01:10:36.071Z,0.00
2022-10-23T01:11:36.022Z,0.00
2022-10-23T01:12:36.032Z,0.00
2022-10-23T01:13:36.002Z,0.00
2022-10-23T01:14:36.039Z,0.00
2022-10-23T01:15:35.974Z,0.00
2022-10-23T01:16:35.959Z,0.00
2022-10-23T01:17:38.571Z,0.00
2022-10-23T01:18:35.937Z,0.00
2022-10-23T01:19:35.927Z,0.00
2022-10-23T01:20:35.910Z,0.00
2022-10-23T01:21:35.900Z,0.00
2022-10-23T01:22:35.889Z,0.00
2022-10-23T01:23:35.879Z,0.00
2022-10-23T01:24:35.870Z,0.00
2022-10-23T01:25:35.868Z,0.00
2022-10-23T01:26:35.848Z,0.00
2022-10-23T01:27:35.832Z,0.00
2022-10-23T01:28:35.823Z,0.00
2022-10-23T01:29:35.818Z,0.00
2022-10-23T01:30:35.945Z,0.00
2022-10-23T01:31:35.796Z,0.00
2022-10-23T01:32:35.779Z,0.00
2022-10-23T01:33:35.769Z,0.00
2022-10-23T01:34:35.759Z,0.00
2022-10-23T01:35:35.744Z,0.00
2022-10-23T01:36:35.735Z,0.00
2022-10-23T01:37:35.724Z,0.00
2022-10-23T01:38:35.709Z,0.00
2022-10-23T01:39:35.699Z,0.00
2022-10-23T01:40:35.691Z,0.00
2022-10-23T01:41:35.679Z,0.00
2022-10-23T01:42:35.666Z,0.00
2022-10-23T01:43:35.659Z,0.00
2022-10-23T01:44:35.654Z,0.00
2022-10-23T01:45:35.635Z,0.00
2022-10-23T01:46:35.648Z,0.00
2022-10-23T01:47:35.625Z,0.00
2022-10-23T01:48:35.601Z,0.00
2022-10-23T01:49:35.590Z,0.00
2022-10-23T01:50:35.579Z,0.00
2022-10-23T01:51:35.568Z,0.00
2022-10-23T01:52:35.557Z,0.00
2022-10-23T01:53:35.547Z,0.00
2022-10-23T01:54:35.538Z,0.00
2022-10-23T01:55:35.651Z,0.00
2022-10-23T01:56:35.518Z,0.00
2022-10-23T01:57:35.568Z,0.00
2022-10-23T01:58:35.631Z,0.00
2022-10-23T01:59:35.771Z,0.00
2022-10-23T02:00:35.645Z,0.00
2022-10-23T02:01:35.648Z,0.00
2022-10-23T02:02:35.624Z,0.00
2022-10-23T02:03:35.429Z,0.00
2022-10-23T02:04:35.421Z,0.00
2022-10-23T02:05:35.413Z,0.00
2022-10-23T02:06:35.400Z,0.00
2022-10-23T02:07:35.387Z,0.00
2022-10-23T02:08:35.383Z,0.00
2022-10-23T02:09:35.366Z,0.00
2022-10-23T02:10:35.357Z,0.00
2022-10-23T02:11:35.348Z,0.00
2022-10-23T02:12:35.344Z,0.00
2022-10-23T02:13:35.321Z,0.00
2022-10-23T02:14:35.312Z,0.00
2022-10-23T02:15:35.301Z,0.00
2022-10-23T02:16:35.288Z,0.00
2022-10-23T02:17:35.276Z,0.00
2022-10-23T02:18:35.287Z,0.00
2022-10-23T02:19:35.250Z,0.00
2022-10-23T02:20:35.344Z,0.00
2022-10-23T02:21:35.230Z,0.00
2022-10-23T02:22:35.222Z,0.00
2022-10-23T02:23:35.205Z,0.00
2022-10-23T02:24:35.195Z,0.00
2022-10-23T02:25:35.181Z,0.00
2022-10-23T02:26:35.177Z,0.00
2022-10-23T02:27:35.162Z,0.00
2022-10-23T02:28:35.154Z,0.00
2022-10-23T02:29:35.138Z,0.00
2022-10-23T02:30:35.128Z,0.00
2022-10-23T02:31:35.115Z,0.00
2022-10-23T02:32:35.106Z,0.00
2022-10-23T02:33:35.098Z,0.00
2022-10-23T02:34:35.110Z,0.00
2022-10-23T02:35:35.074Z,0.00
2022-10-23T02:36:35.064Z,0.00
2022-10-23T02:37:35.050Z,0.00
2022-10-23T02:38:35.041Z,0.00
2022-10-23T02:39:35.027Z,0.00
2022-10-23T02:40:35.017Z,0.00
2022-10-23T02:41:35.003Z,0.00
2022-10-23T02:42:34.994Z,0.00
2022-10-23T02:43:34.982Z,0.00
2022-10-23T02:44:34.972Z,0.00
2022-10-23T02:45:34.983Z,0.00
2022-10-23T02:46:34.951Z,0.00
2022-10-23T02:47:34.936Z,0.00
2022-10-23T02:48:34.925Z,0.00
2022-10-23T02:49:34.917Z,0.00
2022-10-23T02:50:34.931Z,0.00
2022-10-23T02:51:34.891Z,0.00
2022-10-23T02:52:34.883Z,0.00
2022-10-23T02:53:34.871Z,0.00
2022-10-23T02:54:34.858Z,0.00
2022-10-23T02:55:34.850Z,0.00
2022-10-23T02:56:37.894Z,0.00
2022-10-23T02:57:34.825Z,0.00
2022-10-23T02:58:34.819Z,0.00
2022-10-23T02:59:34.803Z,0.00
2022-10-23T03:00:34.802Z,0.00
2022-10-23T03:01:34.885Z,0.00
2022-10-23T03:02:34.773Z,0.00
2022-10-23T03:03:34.758Z,0.00
2022-10-23T03:04:34.748Z,0.00
2022-10-23T03:05:34.737Z,0.00
2022-10-23T03:06:34.747Z,0.00
2022-10-23T03:07:34.712Z,0.00
2022-10-23T03:08:34.704Z,0.00
2022-10-23T03:09:34.691Z,0.00
2022-10-23T03:10:34.680Z,0.00
2022-10-23T03:11:34.671Z,0.00
2022-10-23T03:12:34.660Z,0.00
2022-10-23T03:13:34.646Z,0.00
2022-10-23T03:14:34.635Z,0.00
2022-10-23T03:15:34.626Z,0.00
2022-10-23T03:16:34.618Z,0.00
2022-10-23T03:17:34.604Z,0.00
2022-10-23T03:18:34.592Z,0.00
2022-10-23T03:19:34.580Z,0.00
2022-10-23T03:20:34.569Z,0.00
2022-10-23T03:21:34.561Z,0.00
2022-10-23T03:22:34.568Z,0.00
2022-10-23T03:23:34.535Z,0.00
2022-10-23T03:24:34.525Z,0.00
2022-10-23T03:25:34.514Z,0.00
2022-10-23T03:26:34.503Z,0.00
2022-10-23T03:27:34.487Z,0.00
2022-10-23T03:28:34.478Z,0.00
2022-10-23T03:29:34.468Z,0.00
2022-10-23T03:30:34.457Z,0.00
2022-10-23T03:31:34.444Z,0.00
2022-10-23T03:32:34.452Z,0.00
2022-10-23T03:33:34.424Z,0.00
2022-10-23T03:34:34.411Z,0.00
2022-10-23T03:35:34.399Z,0.00
2022-10-23T03:36:34.389Z,0.00
2022-10-23T03:37:34.377Z,0.00
2022-10-23T03:38:34.388Z,0.00
2022-10-23T03:39:34.359Z,0.00
2022-10-23T03:40:34.344Z,0.00
2022-10-23T03:41:34.332Z,0.00
2022-10-23T03:42:34.322Z,0.00
2022-10-23T03:43:34.311Z,0.00
2022-10-23T03:44:34.299Z,0.00
2022-10-23T03:45:34.293Z,0.00
2022-10-23T03:46:34.273Z,0.00
2022-10-23T03:47:34.267Z,0.00
2022-10-23T03:48:34.253Z,0.00
2022-10-23T03:49:34.243Z,0.00
2022-10-23T03:50:34.229Z,0.00
2022-10-23T03:51:34.219Z,0.00
2022-10-23T03:52:34.208Z,0.00
2022-10-23T03:53:34.200Z,0.00
2022-10-23T03:54:34.207Z,0.00
2022-10-23T03:55:34.174Z,0.00
2022-10-23T03:56:34.162Z,0.00
2022-10-23T03:57:34.202Z,0.00
2022-10-23T03:58:34.139Z,0.00
2022-10-23T03:59:34.129Z,0.00
2022-10-23T04:00:34.173Z,0.00
2022-10-23T04:01:34.312Z,0.00
2022-10-23T04:02:34.171Z,0.00
2022-10-23T04:03:34.235Z,0.00
2022-10-23T04:04:34.073Z,0.00
2022-10-23T04:05:34.062Z,0.00
2022-10-23T04:06:34.049Z,0.00
2022-10-23T04:07:34.039Z,0.00
2022-10-23T04:08:34.182Z,0.00
2022-10-23T04:09:34.019Z,0.00
2022-10-23T04:10:34.030Z,0.00
2022-10-23T04:11:33.995Z,0.00
2022-10-23T04:12:33.982Z,0.00
2022-10-23T04:13:34.174Z,0.00
2022-10-23T04:14:34.214Z,0.00
2022-10-23T04:15:34.053Z,0.00
2022-10-23T04:16:33.939Z,0.00
2022-10-23T04:17:33.937Z,0.00
2022-10-23T04:18:34.166Z,0.00
2022-10-23T04:19:34.205Z,0.00
2022-10-23T04:20:34.042Z,0.00
2022-10-23T04:21:33.887Z,0.00
2022-10-23T04:22:33.873Z,0.00
2022-10-23T04:23:33.860Z,0.00
2022-10-23T04:24:33.847Z,0.00
2022-10-23T04:25:34.296Z,0.00
2022-10-23T04:26:33.870Z,0.00
2022-10-23T04:27:33.821Z,0.00
2022-10-23T04:28:33.803Z,0.00
2022-10-23T04:29:33.795Z,0.00
2022-10-23T04:30:33.782Z,0.00
2022-10-23T04:31:33.771Z,0.00
2022-10-23T04:32:33.759Z,0.00
2022-10-23T04:33:33.750Z,0.00
2022-10-23T04:34:33.736Z,0.00
2022-10-23T04:35:33.731Z,0.00
2022-10-23T04:36:33.714Z,0.00
2022-10-23T04:37:33.703Z,0.00
2022-10-23T04:38:33.693Z,0.00
2022-10-23T04:39:33.683Z,0.00
2022-10-23T04:40:33.670Z,0.00
2022-10-23T04:41:33.671Z,0.00
2022-10-23T04:42:33.679Z,0.00
2022-10-23T04:43:33.639Z,0.00
2022-10-23T04:44:33.625Z,0.00
2022-10-23T04:45:33.615Z,0.00
2022-10-23T04:46:33.602Z,0.00
2022-10-23T04:47:33.597Z,0.00
2022-10-23T04:48:33.580Z,0.00
2022-10-23T04:49:33.570Z,0.00
2022-10-23T04:50:33.596Z,0.00
2022-10-23T04:51:33.547Z,0.00
2022-10-23T04:52:33.535Z,0.00
2022-10-23T04:53:33.526Z,0.00
2022-10-23T04:54:33.512Z,0.00
2022-10-23T04:55:33.503Z,0.00
2022-10-23T04:56:33.490Z,0.00
2022-10-23T04:57:33.482Z,0.00
2022-10-23T04:58:33.493Z,0.00
2022-10-23T04:59:33.460Z,0.00
2022-10-23T05:00:33.494Z,0.00
2022-10-23T05:01:33.542Z,0.00
2022-10-23T05:02:33.431Z,0.00
2022-10-23T05:03:33.413Z,0.00
2022-10-23T05:04:33.401Z,0.00
2022-10-23T05:05:33.393Z,0.00
2022-10-23T05:06:33.378Z,0.00
2022-10-23T05:07:33.369Z,0.00
2022-10-23T05:08:33.356Z,0.00
2022-10-23T05:09:33.372Z,0.00
2022-10-23T05:10:33.335Z,0.00
2022-10-23T05:11:33.327Z,0.00
2022-10-23T05:12:33.314Z,0.00
2022-10-23T05:13:33.304Z,0.00
2022-10-23T05:14:33.311Z,0.00
2022-10-23T05:15:33.349Z,0.00
2022-10-23T05:16:33.269Z,0.00
2022-10-23T05:17:33.259Z,0.00
2022-10-23T05:18:33.247Z,0.00
2022-10-23T05:19:33.235Z,0.00
2022-10-23T05:20:33.223Z,0.00
2022-10-23T05:21:33.214Z,0.00
2022-10-23T05:22:33.201Z,0.00
2022-10-23T05:23:33.191Z,0.00
2022-10-23T05:24:33.181Z,0.00
2022-10-23T05:25:33.170Z,0.00
2022-10-23T05:26:33.159Z,0.00
2022-10-23T05:27:33.148Z,0.00
2022-10-23T05:28:33.134Z,4.00
2022-10-23T05:29:33.126Z,4.00
2022-10-23T05:30:33.138Z,0.00
2022-10-23T05:31:33.099Z,0.00
2022-10-23T05:32:33.099Z,0.00
2022-10-23T05:33:33.079Z,4.00
2022-10-23T05:34:33.065Z,4.00
2022-10-23T05:35:33.062Z,0.00
2022-10-23T05:36:33.043Z,4.00
2022-10-23T05:37:33.034Z,4.00
2022-10-23T05:38:33.021Z,4.00
2022-10-23T05:39:33.012Z,8.00
2022-10-23T05:40:33.098Z,8.00
2022-10-23T05:41:32.990Z,8.00
2022-10-23T05:42:33.837Z,12.00
2022-10-23T05:43:32.968Z,16.00
2022-10-23T05:44:32.957Z,16.00
2022-10-23T05:45:32.947Z,20.00
2022-10-23T05:46:32.958Z,24.00
2022-10-23T05:47:32.923Z,28.00
2022-10-23T05:48:35.210Z,36.00
2022-10-23T05:49:32.901Z,40.00
2022-10-23T05:50:32.889Z,48.00
2022-10-23T05:51:32.887Z,52.00
2022-10-23T05:52:32.864Z,64.00
2022-10-23T05:53:32.889Z,76.00
2022-10-23T05:54:32.842Z,84.00
2022-10-23T05:55:32.832Z,96.00
2022-10-23T05:56:32.819Z,104.00
2022-10-23T05:57:32.810Z,124.00
2022-10-23T05:58:32.799Z,132.00
2022-10-23T05:59:32.788Z,148.00
2022-10-23T06:00:32.775Z,164.00
2022-10-23T06:01:32.895Z,184.00
2022-10-23T06:02:32.802Z,204.00
2022-10-23T06:03:32.745Z,220.00
2022-10-23T06:04:32.734Z,236.00
2022-10-23T06:05:32.924Z,256.00
2022-10-23T06:06:32.709Z,276.00
2022-10-23T06:07:35.138Z,296.00
2022-10-23T06:08:32.685Z,320.00
2022-10-23T06:09:32.677Z,344.00
2022-10-23T06:10:32.670Z,376.00
2022-10-23T06:11:32.654Z,404.00
2022-10-23T06:12:32.642Z,440.00
2022-10-23T06:13:32.632Z,476.00
2022-10-23T06:14:32.627Z,516.00
2022-10-23T06:15:32.607Z,552.00
2022-10-23T06:16:32.595Z,592.00
2022-10-23T06:17:32.589Z,636.00
2022-10-23T06:18:32.606Z,684.00
2022-10-23T06:19:32.568Z,740.00
2022-10-23T06:20:32.559Z,812.00
2022-10-23T06:21:32.543Z,876.00
2022-10-23T06:22:32.534Z,952.00
2022-10-23T06:23:32.669Z,1036.00
2022-10-23T06:24:32.506Z,1116.00
2022-10-23T06:25:32.497Z,1196.00
2022-10-23T06:26:32.485Z,1268.00
2022-10-23T06:27:32.477Z,1356.00
2022-10-23T06:28:32.464Z,1428.00
2022-10-23T06:29:32.458Z,1500.00
2022-10-23T06:30:32.485Z,1572.00
2022-10-23T06:31:32.434Z,1640.00
2022-10-23T06:32:32.420Z,1712.00
2022-10-23T06:33:32.409Z,1784.00
2022-10-23T06:34:32.417Z,1848.00
2022-10-23T06:35:32.385Z,1932.00
2022-10-23T06:36:32.373Z,2012.00
2022-10-23T06:37:32.364Z,2092.00
2022-10-23T06:38:32.349Z,2184.00
2022-10-23T06:39:32.482Z,2260.00
2022-10-23T06:40:32.331Z,2336.00
2022-10-23T06:41:32.321Z,2408.00
2022-10-23T06:42:32.307Z,2492.00
2022-10-23T06:43:32.299Z,2568.00
2022-10-23T06:44:32.294Z,2648.00
2022-10-23T06:45:32.275Z,2736.00
2022-10-23T06:46:32.262Z,2828.00
2022-10-23T06:47:32.250Z,2932.00
2022-10-23T06:48:32.238Z,3052.00
2022-10-23T06:49:32.229Z,3168.00
2022-10-23T06:50:32.245Z,3304.00
2022-10-23T06:51:32.205Z,3456.00
2022-10-23T06:52:46.670Z,3596.00
2022-10-23T06:53:33.209Z,3720.00
2022-10-23T06:54:32.174Z,3840.00
2022-10-23T06:55:32.280Z,3956.00
2022-10-23T06:56:32.156Z,4076.00
2022-10-23T06:57:32.141Z,4212.00
2022-10-23T06:58:32.128Z,4324.00
2022-10-23T06:59:32.120Z,4440.00
2022-10-23T07:00:32.158Z,4548.00
2022-10-23T07:01:32.359Z,4672.00
2022-10-23T07:02:32.085Z,4800.00
2022-10-23T07:03:32.078Z,4928.00
2022-10-23T07:04:32.064Z,5084.00
2022-10-23T07:05:32.050Z,5240.00
2022-10-23T07:06:32.063Z,5428.00
2022-10-23T07:07:32.035Z,5632.00
2022-10-23T07:08:32.015Z,5848.00
2022-10-23T07:09:32.007Z,6060.00
2022-10-23T07:10:31.996Z,6224.00
2022-10-23T07:11:31.983Z,6368.00
2022-10-23T07:12:31.973Z,6496.00
2022-10-23T07:13:31.962Z,6584.00
2022-10-23T07:14:31.948Z,6632.00
2022-10-23T07:15:31.940Z,6660.00
2022-10-23T07:16:31.925Z,6708.00
2022-10-23T07:17:31.917Z,6720.00
2022-10-23T07:18:31.965Z,6744.00
2022-10-23T07:19:31.891Z,6804.00
2022-10-23T07:20:31.884Z,6848.00
2022-10-23T07:21:31.870Z,6880.00
2022-10-23T07:22:31.881Z,6872.00
2022-10-23T07:23:31.850Z,6824.00
2022-10-23T07:24:31.843Z,6728.00
2022-10-23T07:25:31.824Z,6676.00
2022-10-23T07:26:31.810Z,6684.00
2022-10-23T07:27:31.801Z,6748.00
2022-10-23T07:28:31.791Z,6828.00
2022-10-23T07:29:31.782Z,6928.00
2022-10-23T07:30:31.769Z,7040.00
2022-10-23T07:31:31.756Z,7168.00
2022-10-23T07:32:31.752Z,7272.00
2022-10-23T07:33:31.735Z,7328.00
2022-10-23T07:34:31.725Z,7448.00
2022-10-23T07:35:34.279Z,7532.00
2022-10-23T07:36:31.703Z,7660.00
2022-10-23T07:37:31.690Z,7812.00
2022-10-23T07:38:31.698Z,7976.00
2022-10-23T07:39:31.670Z,8144.00
2022-10-23T07:40:31.659Z,8296.00
2022-10-23T07:41:31.643Z,8416.00
2022-10-23T07:42:31.631Z,8540.00
2022-10-23T07:44:31.608Z,8680.00
2022-10-23T07:45:31.644Z,8976.00
2022-10-23T07:46:31.584Z,9316.00
2022-10-23T07:47:31.578Z,9588.00
2022-10-23T07:48:31.566Z,9864.00
2022-10-23T07:49:31.557Z,10080.00
2022-10-23T07:50:31.541Z,10240.00
2022-10-23T07:51:31.529Z,10308.00
2022-10-23T07:52:35.024Z,10420.00
2022-10-23T07:53:31.507Z,10456.00
2022-10-23T07:54:31.528Z,10448.00
2022-10-23T07:55:31.498Z,10544.00
2022-10-23T07:56:31.515Z,10560.00
2022-10-23T07:57:31.463Z,10604.00
2022-10-23T07:58:31.600Z,10588.00
2022-10-23T07:59:35.796Z,10620.00
2022-10-23T08:00:31.433Z,10676.00
2022-10-23T08:01:31.647Z,10700.00
2022-10-23T08:02:31.453Z,10748.00
2022-10-23T08:03:31.396Z,10756.00
2022-10-23T08:04:31.384Z,10648.00
2022-10-23T08:05:31.371Z,10492.00
2022-10-23T08:06:31.365Z,10388.00
2022-10-23T08:07:31.347Z,10320.00
2022-10-23T08:08:31.339Z,10264.00
2022-10-23T08:09:31.328Z,10256.00
2022-10-23T08:10:31.344Z,10276.00
2022-10-23T08:11:31.315Z,10316.00
2022-10-23T08:12:31.309Z,10360.00
2022-10-23T08:13:31.283Z,10384.00
2022-10-23T08:14:31.271Z,10436.00
2022-10-23T08:15:31.257Z,10484.00
2022-10-23T08:16:31.249Z,10488.00
2022-10-23T08:17:31.238Z,10476.00
2022-10-23T08:18:31.225Z,10464.00
2022-10-23T08:19:31.211Z,10440.00
2022-10-23T08:20:31.206Z,10416.00
2022-10-23T08:21:31.197Z,10372.00
2022-10-23T08:22:31.207Z,10320.00
2022-10-23T08:23:31.168Z,10272.00
2022-10-23T08:24:31.158Z,10236.00
2022-10-23T08:26:31.165Z,10180.00
2022-10-23T08:27:31.125Z,10188.00
2022-10-23T08:28:31.113Z,10208.00
2022-10-23T08:29:31.099Z,10236.00
2022-10-23T08:30:31.091Z,10280.00
2022-10-23T08:31:31.078Z,10316.00
2022-10-23T08:32:31.068Z,10348.00
2022-10-23T08:33:31.058Z,10396.00
2022-10-23T08:34:31.050Z,10464.00
2022-10-23T08:35:31.037Z,10576.00
2022-10-23T08:36:31.035Z,10728.00
2022-10-23T08:37:31.010Z,10924.00
2022-10-23T08:38:31.002Z,11144.00
2022-10-23T08:39:30.991Z,11412.00
2022-10-23T08:40:30.980Z,11664.00
2022-10-23T08:41:30.972Z,11920.00
2022-10-23T08:42:30.988Z,12156.00
2022-10-23T08:43:30.954Z,12364.00
2022-10-23T08:44:30.936Z,12552.00
2022-10-23T08:45:30.924Z,12696.00
2022-10-23T08:46:30.913Z,12852.00
2022-10-23T08:47:30.900Z,13008.00
2022-10-23T08:48:30.907Z,13164.00
2022-10-23T08:49:30.881Z,13368.00
2022-10-23T08:50:30.907Z,13592.00
2022-10-23T08:51:30.859Z,13812.00
2022-10-23T08:52:30.849Z,14072.00
2022-10-23T08:53:30.844Z,14384.00
2022-10-23T08:54:30.825Z,14712.00
2022-10-23T08:55:30.816Z,15008.00
2022-10-23T08:56:30.805Z,15276.00
2022-10-23T08:57:30.794Z,15496.00
2022-10-23T08:58:30.818Z,15708.00
2022-10-23T08:59:30.838Z,15896.00
2022-10-23T09:00:30.885Z,16064.00
2022-10-23T09:01:31.053Z,16384.00
2022-10-23T09:02:30.867Z,16544.00
2022-10-23T09:03:30.931Z,16672.00
2022-10-23T09:04:30.879Z,16768.00
2022-10-23T09:05:30.890Z,16736.00
2022-10-23T09:06:30.892Z,16704.00
2022-10-23T09:07:30.682Z,16608.00
2022-10-23T09:08:30.668Z,16480.00
2022-10-23T09:09:30.658Z,16320.00
2022-10-23T09:10:30.647Z,16080.00
2022-10-23T09:11:30.788Z,16104.00
2022-10-23T09:12:30.623Z,16288.00
2022-10-23T09:13:30.610Z,16512.00
2022-10-23T09:14:30.639Z,16704.00
2022-10-23T09:15:30.605Z,16864.00
2022-10-23T09:16:30.579Z,17088.00
2022-10-23T09:17:30.568Z,17152.00
2022-10-23T09:18:30.556Z,17248.00
2022-10-23T09:19:30.545Z,17344.00
2022-10-23T09:20:30.708Z,17376.00
2022-10-23T09:21:30.544Z,17504.00
2022-10-23T09:22:30.511Z,17664.00
2022-10-23T09:23:30.498Z,17888.00
2022-10-23T09:24:30.490Z,18112.00
2022-10-23T09:25:30.479Z,18368.00
2022-10-23T09:26:30.727Z,18784.00
2022-10-23T09:27:30.470Z,19136.00
2022-10-23T09:28:30.446Z,19392.00
2022-10-23T09:29:30.430Z,19712.00
2022-10-23T09:30:30.444Z,19840.00
2022-10-23T09:31:30.414Z,19808.00
2022-10-23T09:32:30.400Z,19712.00
2022-10-23T09:33:30.386Z,19520.00
2022-10-23T09:34:30.374Z,19488.00
2022-10-23T09:35:30.360Z,19296.00
2022-10-23T09:36:30.352Z,19392.00
2022-10-23T09:37:30.341Z,19520.00
2022-10-23T09:38:30.338Z,19840.00
2022-10-23T09:39:30.357Z,20192.00
2022-10-23T09:40:30.321Z,20320.00
2022-10-23T09:41:30.300Z,20288.00
2022-10-23T09:42:30.289Z,20096.00
2022-10-23T09:43:30.277Z,19584.00
2022-10-23T09:44:30.276Z,19424.00
2022-10-23T09:45:30.254Z,19392.00
2022-10-23T09:46:30.267Z,19168.00
2022-10-23T09:47:30.232Z,18976.00
2022-10-23T09:48:30.223Z,18688.00
2022-10-23T09:49:30.207Z,18528.00
2022-10-23T09:50:30.224Z,18240.00
2022-10-23T09:51:30.196Z,18496.00
2022-10-23T09:52:30.174Z,18560.00
2022-10-23T09:53:30.161Z,18656.00
2022-10-23T09:54:30.151Z,18880.00
2022-10-23T09:55:30.143Z,18848.00
2022-10-23T09:56:30.129Z,19008.00
2022-10-23T09:57:30.112Z,19744.00
2022-10-23T09:58:30.106Z,20576.00
2022-10-23T09:59:30.094Z,20960.00
2022-10-23T10:00:30.078Z,21600.00
2022-10-23T10:01:30.222Z,22240.00
2022-10-23T10:02:30.105Z,22592.00
2022-10-23T10:03:30.070Z,22144.00
2022-10-23T10:04:30.036Z,22080.00
2022-10-23T10:05:30.020Z,21984.00
2022-10-23T10:06:30.097Z,22528.00
2022-10-23T10:07:32.211Z,22048.00
2022-10-23T10:08:29.991Z,21120.00
2022-10-23T10:09:29.975Z,20416.00
2022-10-23T10:10:29.967Z,19968.00
2022-10-23T10:11:29.956Z,19680.00
2022-10-23T10:12:29.945Z,19008.00
2022-10-23T10:13:29.973Z,19136.00
2022-10-23T10:14:29.962Z,18848.00
2022-10-23T10:15:29.908Z,18752.00
2022-10-23T10:16:29.964Z,18368.00
2022-10-23T10:17:29.887Z,18112.00
2022-10-23T10:18:29.902Z,17888.00
2022-10-23T10:19:29.874Z,17824.00
2022-10-23T10:20:29.860Z,17920.00
2022-10-23T10:21:29.842Z,18016.00
2022-10-23T10:22:29.833Z,17888.00
2022-10-23T10:23:29.821Z,17568.00
2022-10-23T10:24:29.811Z,17600.00
2022-10-23T10:25:29.816Z,17216.00
2022-10-23T10:27:29.975Z,16444.00
2022-10-23T10:28:29.766Z,16252.00
2022-10-23T10:29:29.757Z,16344.00
2022-10-23T10:30:29.746Z,16196.00
2022-10-23T10:31:29.735Z,16168.00
2022-10-23T10:32:29.728Z,16220.00
2022-10-23T10:33:29.708Z,16272.00
2022-10-23T10:34:29.723Z,16416.00
2022-10-23T10:35:29.707Z,16864.00
2022-10-23T10:36:29.867Z,17088.00
2022-10-23T10:37:29.665Z,17312.00
2022-10-23T10:38:29.654Z,17664.00
2022-10-23T10:39:29.643Z,17952.00
2022-10-23T10:40:29.634Z,18272.00
2022-10-23T10:41:29.622Z,18592.00
2022-10-23T10:42:29.611Z,18880.00
2022-10-23T10:43:29.597Z,19008.00
2022-10-23T10:44:29.592Z,19136.00
2022-10-23T10:45:29.577Z,19168.00
2022-10-23T10:46:29.572Z,19136.00
2022-10-23T10:47:29.566Z,19072.00
2022-10-23T10:48:29.552Z,19040.00
2022-10-23T10:49:29.531Z,18944.00
2022-10-23T10:50:29.545Z,18880.00
2022-10-23T10:51:29.514Z,18816.00
2022-10-23T10:52:29.501Z,18816.00
2022-10-23T10:53:29.488Z,18784.00
2022-10-23T10:54:29.484Z,18784.00
2022-10-23T10:55:29.470Z,18848.00
2022-10-23T10:56:29.455Z,18912.00
2022-10-23T10:57:29.449Z,19008.00
2022-10-23T10:58:29.434Z,19168.00
2022-10-23T10:59:29.657Z,19296.00
2022-10-23T11:00:29.418Z,19424.00
2022-10-23T11:01:29.489Z,19488.00
2022-10-23T11:02:29.399Z,19456.00
2022-10-23T11:03:29.382Z,19424.00
2022-10-23T11:04:29.369Z,19424.00
2022-10-23T11:05:29.357Z,19424.00
2022-10-23T11:06:29.373Z,19456.00
2022-10-23T11:07:29.334Z,19552.00
2022-10-23T11:08:29.321Z,19680.00
2022-10-23T11:09:29.311Z,19808.00
2022-10-23T11:10:29.306Z,20000.00
2022-10-23T11:11:29.288Z,20064.00
2022-10-23T11:12:29.416Z,20096.00
2022-10-23T11:13:29.555Z,20032.00
2022-10-23T11:14:29.268Z,19968.00
2022-10-23T11:15:29.244Z,19808.00
2022-10-23T11:16:29.233Z,19520.00
2022-10-23T11:17:29.220Z,19328.00
2022-10-23T11:18:29.212Z,19232.00
2022-10-23T11:19:29.199Z,19040.00
2022-10-23T11:20:29.189Z,18880.00
2022-10-23T11:21:29.178Z,18688.00
2022-10-23T11:22:29.193Z,18336.00
2022-10-23T11:23:29.259Z,17952.00
2022-10-23T11:24:29.379Z,17792.00
2022-10-23T11:25:29.142Z,17888.00
2022-10-23T11:26:29.166Z,18080.00
2022-10-23T11:27:29.204Z,18336.00
2022-10-23T11:28:29.203Z,18560.00
2022-10-23T11:29:29.240Z,18720.00
2022-10-23T11:30:29.246Z,18624.00
2022-10-23T11:31:29.215Z,18432.00
2022-10-23T11:32:29.090Z,18016.00
2022-10-23T11:33:29.282Z,17568.00
2022-10-23T11:34:29.063Z,17152.00
2022-10-23T11:35:29.021Z,16800.00
2022-10-23T11:36:29.042Z,16608.00
2022-10-23T11:37:29.017Z,16408.00
2022-10-23T11:38:29.295Z,16576.00
2022-10-23T11:39:29.278Z,16576.00
2022-10-23T11:40:28.966Z,16640.00
2022-10-23T11:41:28.955Z,16640.00
2022-10-23T11:42:28.953Z,16672.00
2022-10-23T11:43:28.929Z,16736.00
2022-10-23T11:44:28.926Z,16928.00
2022-10-23T11:45:28.917Z,17120.00
2022-10-23T11:46:28.898Z,17376.00
2022-10-23T11:47:28.888Z,17536.00
2022-10-23T11:48:28.878Z,17664.00
2022-10-23T11:49:28.862Z,17696.00
2022-10-23T11:50:28.860Z,17632.00
2022-10-23T11:51:28.842Z,17504.00
2022-10-23T11:52:28.830Z,17408.00
2022-10-23T11:53:28.818Z,17120.00
2022-10-23T11:54:28.856Z,16832.00
2022-10-23T11:55:28.839Z,16288.00
2022-10-23T11:56:28.789Z,15940.00
2022-10-23T11:58:28.766Z,15444.00
2022-10-23T11:59:28.750Z,15484.00
2022-10-23T12:00:28.746Z,15672.00
2022-10-23T12:01:28.778Z,15972.00
2022-10-23T12:02:28.829Z,16308.00
2022-10-23T12:03:28.709Z,16960.00
2022-10-23T12:04:28.697Z,17312.00
2022-10-23T12:05:28.687Z,17472.00
2022-10-23T12:06:28.673Z,17376.00
2022-10-23T12:07:28.682Z,17344.00
2022-10-23T12:08:28.672Z,17216.00
2022-10-23T12:09:28.644Z,17024.00
2022-10-23T12:10:28.656Z,16768.00
2022-10-23T12:11:28.618Z,16576.00
2022-10-23T12:12:28.607Z,16148.00
2022-10-23T12:13:28.599Z,15844.00
2022-10-23T12:14:28.590Z,15732.00
2022-10-23T12:15:28.572Z,15724.00
2022-10-23T12:16:28.560Z,15740.00
2022-10-23T12:17:28.556Z,15920.00
2022-10-23T12:18:28.548Z,16416.00
2022-10-23T12:19:28.540Z,17024.00
2022-10-23T12:20:28.562Z,17728.00
2022-10-23T12:21:28.543Z,18304.00
2022-10-23T12:22:28.551Z,18688.00
2022-10-23T12:23:28.485Z,18912.00
2022-10-23T12:24:28.476Z,19136.00
2022-10-23T12:25:28.466Z,19168.00
2022-10-23T12:26:28.475Z,18784.00
2022-10-23T12:27:28.440Z,18112.00
2022-10-23T12:28:28.439Z,17632.00
2022-10-23T12:29:28.417Z,17792.00
2022-10-23T12:30:28.407Z,18304.00
2022-10-23T12:31:28.413Z,18944.00
2022-10-23T12:32:28.416Z,19712.00
2022-10-23T12:33:28.373Z,20160.00